sensor_id;sensor_type;location;lat;lon;timestamp;temperature;humidity
40374;DHT22;26079;45.958;12.492;2022-08-19T00:01:10;20.00;99.90
40374;DHT22;26079;45.958;12.492;2022-08-19T00:03:35;20.00;99.90
40374;DHT22;26079;45.958;12.492;2022-08-19T00:06:01;20.00;99.90
40374;DHT22;26079;45.958;12.492;2022-08-19T00:08:27;19.90;99.90
40374;DHT22;26079;45.958;12.492;2022-08-19T00:10:56;19.90;99.90
40374;DHT22;26079;45.958;12.492;2022-08-19T00:13:23;19.90;99.90
40374;DHT22;26079;45.958;12.492;2022-08-19T00:15:48;19.90;99.90
40374;DHT22;26079;45.958;12.492;2022-08-19T00:18:14;20.00;99.90
40374;DHT22;26079;45.958;12.492;2022-08-19T00:20:40;20.10;99.90
40374;DHT22;26079;45.958;12.492;2022-08-19T00:23:06;20.10;99.90
40374;DHT22;26079;45.958;12.492;2022-08-19T00:25:32;20.10;99.90
40374;DHT22;26079;45.958;12.492;2022-08-19T00:28:02;20.10;99.90
40374;DHT22;26079;45.958;12.492;2022-08-19T00:30:28;20.10;99.90
40374;DHT22;26079;45.958;12.492;2022-08-19T00:32:54;20.20;99.90
40374;DHT22;26079;45.958;12.492;2022-08-19T00:35:21;20.30;99.90
40374;DHT22;26079;45.958;12.492;2022-08-19T00:37:48;20.20;99.90
40374;DHT22;26079;45.958;12.492;2022-08-19T00:40:15;20.20;99.90
40374;DHT22;26079;45.958;12.492;2022-08-19T00:42:42;20.30;99.90
40374;DHT22;26079;45.958;12.492;2022-08-19T00:45:14;20.20;99.90
40374;DHT22;26079;45.958;12.492;2022-08-19T00:47:40;20.10;99.90
40374;DHT22;26079;45.958;12.492;2022-08-19T00:50:08;20.20;99.90
40374;DHT22;26079;45.958;12.492;2022-08-19T00:52:38;20.20;99.90
40374;DHT22;26079;45.958;12.492;2022-08-19T00:55:07;20.20;99.90
40374;DHT22;26079;45.958;12.492;2022-08-19T00:57:39;20.10;99.90
40374;DHT22;26079;45.958;12.492;2022-08-19T01:00:14;20.10;99.90
40374;DHT22;26079;45.958;12.492;2022-08-19T01:02:41;20.10;99.90
40374;DHT22;26079;45.958;12.492;2022-08-19T01:05:14;20.10;99.90
40374;DHT22;26079;45.958;12.492;2022-08-19T01:07:42;20.10;99.90
40374;DHT22;26079;45.958;12.492;2022-08-19T01:10:12;20.10;99.90
40374;DHT22;26079;45.958;12.492;2022-08-19T01:12:39;19.90;99.90
40374;DHT22;26079;45.958;12.492;2022-08-19T01:15:10;19.80;99.90
40374;DHT22;26079;45.958;12.492;2022-08-19T01:17:38;19.70;99.90
40374;DHT22;26079;45.958;12.492;2022-08-19T01:20:05;19.70;99.90
40374;DHT22;26079;45.958;12.492;2022-08-19T01:22:38;19.70;99.90
40374;DHT22;26079;45.958;12.492;2022-08-19T01:25:08;19.80;99.90
40374;DHT22;26079;45.958;12.492;2022-08-19T01:27:42;19.90;99.90
40374;DHT22;26079;45.958;12.492;2022-08-19T01:30:14;19.80;99.90
40374;DHT22;26079;45.958;12.492;2022-08-19T01:32:40;19.80;99.90
40374;DHT22;26079;45.958;12.492;2022-08-19T01:35:06;19.70;99.90
40374;DHT22;26079;45.958;12.492;2022-08-19T01:37:50;19.70;99.90
40374;DHT22;26079;45.958;12.492;2022-08-19T01:40:17;19.60;99.90
40374;DHT22;26079;45.958;12.492;2022-08-19T01:42:49;19.70;99.90
40374;DHT22;26079;45.958;12.492;2022-08-19T01:45:16;19.60;99.90
40374;DHT22;26079;45.958;12.492;2022-08-19T01:47:42;19.60;99.90
40374;DHT22;26079;45.958;12.492;2022-08-19T01:50:09;19.70;99.90
40374;DHT22;26079;45.958;12.492;2022-08-19T01:52:36;19.70;99.90
40374;DHT22;26079;45.958;12.492;2022-08-19T01:55:04;19.80;99.90
40374;DHT22;26079;45.958;12.492;2022-08-19T01:57:30;19.80;99.90
40374;DHT22;26079;45.958;12.492;2022-08-19T01:59:56;19.70;99.90
40374;DHT22;26079;45.958;12.492;2022-08-19T02:02:22;19.70;99.90
40374;DHT22;26079;45.958;12.492;2022-08-19T02:04:48;19.80;99.90
40374;DHT22;26079;45.958;12.492;2022-08-19T02:07:14;19.80;99.90
40374;DHT22;26079;45.958;12.492;2022-08-19T02:09:39;19.90;99.90
40374;DHT22;26079;45.958;12.492;2022-08-19T02:12:07;19.90;99.90
40374;DHT22;26079;45.958;12.492;2022-08-19T02:14:35;19.80;99.90
40374;DHT22;26079;45.958;12.492;2022-08-19T02:17:01;19.80;99.90
40374;DHT22;26079;45.958;12.492;2022-08-19T02:19:27;19.80;99.90
40374;DHT22;26079;45.958;12.492;2022-08-19T02:21:53;19.80;99.90
40374;DHT22;26079;45.958;12.492;2022-08-19T02:24:18;19.70;99.90
40374;DHT22;26079;45.958;12.492;2022-08-19T02:26:44;19.70;99.90
40374;DHT22;26079;45.958;12.492;2022-08-19T02:29:10;19.60;99.90
40374;DHT22;26079;45.958;12.492;2022-08-19T02:31:36;19.60;99.90
40374;DHT22;26079;45.958;12.492;2022-08-19T02:34:02;19.50;99.90
40374;DHT22;26079;45.958;12.492;2022-08-19T02:36:27;19.40;99.90
40374;DHT22;26079;45.958;12.492;2022-08-19T02:38:53;19.40;99.90
40374;DHT22;26079;45.958;12.492;2022-08-19T02:41:23;19.30;99.90
40374;DHT22;26079;45.958;12.492;2022-08-19T02:43:49;19.20;99.90
40374;DHT22;26079;45.958;12.492;2022-08-19T02:46:20;19.10;99.90
40374;DHT22;26079;45.958;12.492;2022-08-19T02:48:51;18.90;99.90
40374;DHT22;26079;45.958;12.492;2022-08-19T02:51:19;18.80;99.90
40374;DHT22;26079;45.958;12.492;2022-08-19T02:53:45;18.70;99.90
40374;DHT22;26079;45.958;12.492;2022-08-19T02:56:10;18.60;99.90
40374;DHT22;26079;45.958;12.492;2022-08-19T02:58:37;18.60;99.90
40374;DHT22;26079;45.958;12.492;2022-08-19T03:01:03;18.50;99.90
40374;DHT22;26079;45.958;12.492;2022-08-19T03:03:28;18.60;99.90
40374;DHT22;26079;45.958;12.492;2022-08-19T03:06:12;18.60;99.90
40374;DHT22;26079;45.958;12.492;2022-08-19T03:08:40;18.50;99.90
40374;DHT22;26079;45.958;12.492;2022-08-19T03:11:06;18.60;99.90
40374;DHT22;26079;45.958;12.492;2022-08-19T03:13:32;18.60;99.90
40374;DHT22;26079;45.958;12.492;2022-08-19T03:15:57;18.70;99.90
40374;DHT22;26079;45.958;12.492;2022-08-19T03:18:23;18.80;99.90
40374;DHT22;26079;45.958;12.492;2022-08-19T03:20:51;18.80;99.90
40374;DHT22;26079;45.958;12.492;2022-08-19T03:23:18;18.90;99.90
40374;DHT22;26079;45.958;12.492;2022-08-19T03:25:47;18.90;99.90
40374;DHT22;26079;45.958;12.492;2022-08-19T03:28:15;19.00;99.90
40374;DHT22;26079;45.958;12.492;2022-08-19T03:30:43;19.00;99.90
40374;DHT22;26079;45.958;12.492;2022-08-19T03:33:10;18.90;99.90
40374;DHT22;26079;45.958;12.492;2022-08-19T03:36:16;18.80;99.90
40374;DHT22;26079;45.958;12.492;2022-08-19T03:38:46;18.80;99.90
40374;DHT22;26079;45.958;12.492;2022-08-19T03:41:15;18.80;99.90
40374;DHT22;26079;45.958;12.492;2022-08-19T03:43:42;18.80;99.90
40374;DHT22;26079;45.958;12.492;2022-08-19T03:46:11;18.70;99.90
40374;DHT22;26079;45.958;12.492;2022-08-19T03:48:38;18.70;99.90
40374;DHT22;26079;45.958;12.492;2022-08-19T03:53:34;18.80;99.90
40374;DHT22;26079;45.958;12.492;2022-08-19T03:56:00;19.00;99.90
40374;DHT22;26079;45.958;12.492;2022-08-19T03:58:28;19.00;99.90
40374;DHT22;26079;45.958;12.492;2022-08-19T04:00:56;19.10;99.90
40374;DHT22;26079;45.958;12.492;2022-08-19T04:03:22;19.20;99.90
40374;DHT22;26079;45.958;12.492;2022-08-19T04:05:48;19.20;99.90
40374;DHT22;26079;45.958;12.492;2022-08-19T04:08:14;19.20;99.90
40374;DHT22;26079;45.958;12.492;2022-08-19T04:10:47;19.20;99.90
40374;DHT22;26079;45.958;12.492;2022-08-19T04:13:14;19.30;99.90
40374;DHT22;26079;45.958;12.492;2022-08-19T04:15:41;19.40;99.90
40374;DHT22;26079;45.958;12.492;2022-08-19T04:18:09;19.30;99.90
40374;DHT22;26079;45.958;12.492;2022-08-19T04:20:46;19.40;99.90
40374;DHT22;26079;45.958;12.492;2022-08-19T04:23:13;19.40;99.90
40374;DHT22;26079;45.958;12.492;2022-08-19T04:25:41;19.40;99.90
40374;DHT22;26079;45.958;12.492;2022-08-19T04:28:08;19.40;99.90
40374;DHT22;26079;45.958;12.492;2022-08-19T04:30:40;19.50;99.90
40374;DHT22;26079;45.958;12.492;2022-08-19T04:33:05;19.50;99.90
40374;DHT22;26079;45.958;12.492;2022-08-19T04:35:37;19.60;99.90
40374;DHT22;26079;45.958;12.492;2022-08-19T04:38:03;19.60;99.10
40374;DHT22;26079;45.958;12.492;2022-08-19T04:40:29;19.70;98.70
40374;DHT22;26079;45.958;12.492;2022-08-19T04:43:13;19.60;98.60
40374;DHT22;26079;45.958;12.492;2022-08-19T04:45:42;19.70;99.90
40374;DHT22;26079;45.958;12.492;2022-08-19T04:48:08;19.60;99.90
40374;DHT22;26079;45.958;12.492;2022-08-19T04:50:35;19.50;99.90
40374;DHT22;26079;45.958;12.492;2022-08-19T04:53:01;19.40;99.90
40374;DHT22;26079;45.958;12.492;2022-08-19T04:55:27;19.40;99.90
40374;DHT22;26079;45.958;12.492;2022-08-19T04:57:53;19.30;99.90
40374;DHT22;26079;45.958;12.492;2022-08-19T05:00:19;19.30;99.90
40374;DHT22;26079;45.958;12.492;2022-08-19T05:02:45;19.40;99.90
40374;DHT22;26079;45.958;12.492;2022-08-19T05:05:11;19.50;99.90
40374;DHT22;26079;45.958;12.492;2022-08-19T05:07:37;19.60;99.90
40374;DHT22;26079;45.958;12.492;2022-08-19T05:10:05;19.70;99.90
40374;DHT22;26079;45.958;12.492;2022-08-19T05:12:31;19.70;99.90
40374;DHT22;26079;45.958;12.492;2022-08-19T05:14:58;19.80;99.40
40374;DHT22;26079;45.958;12.492;2022-08-19T05:17:25;19.90;98.90
40374;DHT22;26079;45.958;12.492;2022-08-19T05:19:51;20.10;99.30
40374;DHT22;26079;45.958;12.492;2022-08-19T05:22:47;20.20;99.50
40374;DHT22;26079;45.958;12.492;2022-08-19T05:25:17;20.30;98.20
40374;DHT22;26079;45.958;12.492;2022-08-19T05:27:44;20.40;96.80
40374;DHT22;26079;45.958;12.492;2022-08-19T05:30:10;20.40;97.20
40374;DHT22;26079;45.958;12.492;2022-08-19T05:32:37;20.40;97.30
40374;DHT22;26079;45.958;12.492;2022-08-19T05:35:04;20.30;97.70
40374;DHT22;26079;45.958;12.492;2022-08-19T05:37:30;20.30;96.90
40374;DHT22;26079;45.958;12.492;2022-08-19T05:39:56;20.30;96.30
40374;DHT22;26079;45.958;12.492;2022-08-19T05:42:22;20.40;96.00
40374;DHT22;26079;45.958;12.492;2022-08-19T05:44:48;20.50;95.70
40374;DHT22;26079;45.958;12.492;2022-08-19T05:47:14;20.50;96.10
40374;DHT22;26079;45.958;12.492;2022-08-19T05:49:41;20.60;95.50
40374;DHT22;26079;45.958;12.492;2022-08-19T05:52:11;20.60;94.40
40374;DHT22;26079;45.958;12.492;2022-08-19T05:54:38;20.70;94.50
40374;DHT22;26079;45.958;12.492;2022-08-19T05:57:06;20.70;95.70
40374;DHT22;26079;45.958;12.492;2022-08-19T05:59:32;20.80;95.60
40374;DHT22;26079;45.958;12.492;2022-08-19T06:02:01;20.80;95.20
40374;DHT22;26079;45.958;12.492;2022-08-19T06:04:27;20.80;95.30
40374;DHT22;26079;45.958;12.492;2022-08-19T06:06:53;20.70;96.40
40374;DHT22;26079;45.958;12.492;2022-08-19T06:09:20;20.70;96.40
40374;DHT22;26079;45.958;12.492;2022-08-19T06:11:54;20.60;96.30
40374;DHT22;26079;45.958;12.492;2022-08-19T06:14:25;20.60;97.70
40374;DHT22;26079;45.958;12.492;2022-08-19T06:16:51;20.50;97.80
40374;DHT22;26079;45.958;12.492;2022-08-19T06:19:19;20.50;97.30
40374;DHT22;26079;45.958;12.492;2022-08-19T06:21:47;20.50;96.60
40374;DHT22;26079;45.958;12.492;2022-08-19T06:24:18;20.50;97.30
40374;DHT22;26079;45.958;12.492;2022-08-19T06:26:46;20.60;97.60
40374;DHT22;26079;45.958;12.492;2022-08-19T06:29:15;20.90;97.30
40374;DHT22;26079;45.958;12.492;2022-08-19T06:31:46;21.20;96.90
40374;DHT22;26079;45.958;12.492;2022-08-19T06:34:15;21.30;96.70
40374;DHT22;26079;45.958;12.492;2022-08-19T06:36:45;21.30;95.90
40374;DHT22;26079;45.958;12.492;2022-08-19T06:39:15;21.40;93.80
40374;DHT22;26079;45.958;12.492;2022-08-19T06:41:44;21.60;94.20
40374;DHT22;26079;45.958;12.492;2022-08-19T06:44:11;21.80;94.50
40374;DHT22;26079;45.958;12.492;2022-08-19T06:46:38;22.00;93.90
40374;DHT22;26079;45.958;12.492;2022-08-19T06:49:05;22.10;95.30
40374;DHT22;26079;45.958;12.492;2022-08-19T06:51:31;22.20;92.40
40374;DHT22;26079;45.958;12.492;2022-08-19T06:53:58;22.40;92.10
40374;DHT22;26079;45.958;12.492;2022-08-19T06:56:27;22.40;89.20
40374;DHT22;26079;45.958;12.492;2022-08-19T06:59:04;22.50;90.80
40374;DHT22;26079;45.958;12.492;2022-08-19T07:01:34;22.50;90.40
40374;DHT22;26079;45.958;12.492;2022-08-19T07:04:00;22.50;91.90
40374;DHT22;26079;45.958;12.492;2022-08-19T07:06:26;22.50;93.50
40374;DHT22;26079;45.958;12.492;2022-08-19T07:08:52;22.50;94.00
40374;DHT22;26079;45.958;12.492;2022-08-19T07:11:18;22.50;92.90
40374;DHT22;26079;45.958;12.492;2022-08-19T07:13:45;22.50;91.70
40374;DHT22;26079;45.958;12.492;2022-08-19T07:16:18;22.40;91.60
40374;DHT22;26079;45.958;12.492;2022-08-19T07:18:48;22.30;93.50
40374;DHT22;26079;45.958;12.492;2022-08-19T07:21:20;22.40;94.30
40374;DHT22;26079;45.958;12.492;2022-08-19T07:23:48;22.30;93.30
40374;DHT22;26079;45.958;12.492;2022-08-19T07:26:28;22.20;93.90
40374;DHT22;26079;45.958;12.492;2022-08-19T07:28:54;22.20;94.80
40374;DHT22;26079;45.958;12.492;2022-08-19T07:31:23;22.10;95.90
40374;DHT22;26079;45.958;12.492;2022-08-19T07:33:50;22.20;94.60
40374;DHT22;26079;45.958;12.492;2022-08-19T07:36:20;22.10;94.80
40374;DHT22;26079;45.958;12.492;2022-08-19T07:38:48;22.00;95.60
40374;DHT22;26079;45.958;12.492;2022-08-19T07:41:18;21.90;95.90
40374;DHT22;26079;45.958;12.492;2022-08-19T07:43:44;21.90;96.00
40374;DHT22;26079;45.958;12.492;2022-08-19T07:46:12;21.90;96.40
40374;DHT22;26079;45.958;12.492;2022-08-19T07:48:40;21.90;96.60
40374;DHT22;26079;45.958;12.492;2022-08-19T07:51:09;21.90;95.90
40374;DHT22;26079;45.958;12.492;2022-08-19T07:53:36;21.90;95.80
40374;DHT22;26079;45.958;12.492;2022-08-19T07:56:02;22.00;96.30
40374;DHT22;26079;45.958;12.492;2022-08-19T07:58:34;22.10;95.80
40374;DHT22;26079;45.958;12.492;2022-08-19T08:01:01;22.40;95.10
40374;DHT22;26079;45.958;12.492;2022-08-19T08:03:29;22.50;95.40
40374;DHT22;26079;45.958;12.492;2022-08-19T08:06:14;22.60;94.70
40374;DHT22;26079;45.958;12.492;2022-08-19T08:09:00;22.80;94.00
40374;DHT22;26079;45.958;12.492;2022-08-19T08:11:55;23.00;92.00
40374;DHT22;26079;45.958;12.492;2022-08-19T08:14:33;23.40;92.20
40374;DHT22;26079;45.958;12.492;2022-08-19T08:17:05;23.80;90.50
40374;DHT22;26079;45.958;12.492;2022-08-19T08:19:32;24.00;88.60
40374;DHT22;26079;45.958;12.492;2022-08-19T08:21:59;24.30;89.30
40374;DHT22;26079;45.958;12.492;2022-08-19T08:24:27;24.50;87.80
40374;DHT22;26079;45.958;12.492;2022-08-19T08:26:59;24.70;86.40
40374;DHT22;26079;45.958;12.492;2022-08-19T08:29:29;24.90;85.40
40374;DHT22;26079;45.958;12.492;2022-08-19T08:31:55;25.00;84.50
40374;DHT22;26079;45.958;12.492;2022-08-19T08:34:21;25.10;85.10
40374;DHT22;26079;45.958;12.492;2022-08-19T08:36:50;25.20;84.90
40374;DHT22;26079;45.958;12.492;2022-08-19T08:39:20;25.20;83.70
40374;DHT22;26079;45.958;12.492;2022-08-19T08:47:15;25.50;84.10
40374;DHT22;26079;45.958;12.492;2022-08-19T08:54:57;25.80;84.00
40374;DHT22;26079;45.958;12.492;2022-08-19T08:57:36;25.90;82.70
40374;DHT22;26079;45.958;12.492;2022-08-19T09:00:08;25.90;82.90
40374;DHT22;26079;45.958;12.492;2022-08-19T09:02:38;25.90;83.00
40374;DHT22;26079;45.958;12.492;2022-08-19T09:05:04;26.00;83.00
40374;DHT22;26079;45.958;12.492;2022-08-19T09:08:06;26.10;82.50
40374;DHT22;26079;45.958;12.492;2022-08-19T09:10:52;26.10;82.30
40374;DHT22;26079;45.958;12.492;2022-08-19T09:16:16;26.10;78.80
40374;DHT22;26079;45.958;12.492;2022-08-19T09:18:48;26.10;78.70
40374;DHT22;26079;45.958;12.492;2022-08-19T09:21:17;26.10;80.30
40374;DHT22;26079;45.958;12.492;2022-08-19T09:23:46;26.30;80.70
40374;DHT22;26079;45.958;12.492;2022-08-19T09:26:16;26.40;78.40
40374;DHT22;26079;45.958;12.492;2022-08-19T09:28:44;26.50;80.20
40374;DHT22;26079;45.958;12.492;2022-08-19T09:31:11;26.50;79.00
40374;DHT22;26079;45.958;12.492;2022-08-19T09:33:37;26.50;80.60
40374;DHT22;26079;45.958;12.492;2022-08-19T09:36:08;26.60;80.90
40374;DHT22;26079;45.958;12.492;2022-08-19T09:38:36;26.70;78.90
40374;DHT22;26079;45.958;12.492;2022-08-19T09:41:07;26.70;79.30
40374;DHT22;26079;45.958;12.492;2022-08-19T09:43:33;26.70;79.00
40374;DHT22;26079;45.958;12.492;2022-08-19T09:46:03;26.80;79.50
40374;DHT22;26079;45.958;12.492;2022-08-19T09:48:33;26.70;77.70
40374;DHT22;26079;45.958;12.492;2022-08-19T09:51:22;26.40;77.60
40374;DHT22;26079;45.958;12.492;2022-08-19T09:53:50;26.30;78.80
40374;DHT22;26079;45.958;12.492;2022-08-19T09:56:17;26.20;78.60
40374;DHT22;26079;45.958;12.492;2022-08-19T09:58:43;26.10;78.00
40374;DHT22;26079;45.958;12.492;2022-08-19T10:01:22;26.20;78.50
40374;DHT22;26079;45.958;12.492;2022-08-19T10:03:53;26.30;78.10
40374;DHT22;26079;45.958;12.492;2022-08-19T10:06:22;26.50;78.80
40374;DHT22;26079;45.958;12.492;2022-08-19T10:08:48;26.60;78.30
40374;DHT22;26079;45.958;12.492;2022-08-19T10:11:14;26.80;76.60
40374;DHT22;26079;45.958;12.492;2022-08-19T10:13:42;26.80;76.40
40374;DHT22;26079;45.958;12.492;2022-08-19T10:16:12;26.70;75.90
40374;DHT22;26079;45.958;12.492;2022-08-19T10:18:39;26.70;76.50
40374;DHT22;26079;45.958;12.492;2022-08-19T10:21:13;26.60;79.00
40374;DHT22;26079;45.958;12.492;2022-08-19T10:23:42;26.50;78.60
40374;DHT22;26079;45.958;12.492;2022-08-19T10:26:13;26.30;79.80
40374;DHT22;26079;45.958;12.492;2022-08-19T10:28:39;26.20;81.10
40374;DHT22;26079;45.958;12.492;2022-08-19T10:31:11;26.30;78.90
40374;DHT22;26079;45.958;12.492;2022-08-19T10:33:38;26.30;78.10
40374;DHT22;26079;45.958;12.492;2022-08-19T10:36:16;26.50;77.00
40374;DHT22;26079;45.958;12.492;2022-08-19T10:38:43;26.50;74.90
40374;DHT22;26079;45.958;12.492;2022-08-19T10:41:16;26.70;74.60
40374;DHT22;26079;45.958;12.492;2022-08-19T10:43:42;26.70;76.30
40374;DHT22;26079;45.958;12.492;2022-08-19T10:46:13;26.80;74.70
40374;DHT22;26079;45.958;12.492;2022-08-19T10:48:39;26.80;74.60
40374;DHT22;26079;45.958;12.492;2022-08-19T10:51:05;26.90;73.30
40374;DHT22;26079;45.958;12.492;2022-08-19T10:53:50;27.00;75.30
40374;DHT22;26079;45.958;12.492;2022-08-19T10:56:17;27.10;73.90
40374;DHT22;26079;45.958;12.492;2022-08-19T10:59:01;27.10;73.60
40374;DHT22;26079;45.958;12.492;2022-08-19T11:01:29;27.20;72.80
40374;DHT22;26079;45.958;12.492;2022-08-19T11:03:56;27.20;73.20
40374;DHT22;26079;45.958;12.492;2022-08-19T11:06:25;27.20;73.50
40374;DHT22;26079;45.958;12.492;2022-08-19T11:08:55;27.20;75.20
40374;DHT22;26079;45.958;12.492;2022-08-19T11:11:21;27.40;74.80
40374;DHT22;26079;45.958;12.492;2022-08-19T11:13:47;27.40;75.00
40374;DHT22;26079;45.958;12.492;2022-08-19T11:16:18;27.30;75.20
40374;DHT22;26079;45.958;12.492;2022-08-19T11:18:48;27.20;75.60
40374;DHT22;26079;45.958;12.492;2022-08-19T11:21:20;27.30;75.90
40374;DHT22;26079;45.958;12.492;2022-08-19T11:23:49;27.50;76.80
40374;DHT22;26079;45.958;12.492;2022-08-19T11:26:17;27.60;75.30
40374;DHT22;26079;45.958;12.492;2022-08-19T11:28:43;27.80;74.90
40374;DHT22;26079;45.958;12.492;2022-08-19T11:31:11;27.90;74.60
40374;DHT22;26079;45.958;12.492;2022-08-19T11:33:37;27.90;73.70
40374;DHT22;26079;45.958;12.492;2022-08-19T11:36:03;27.70;75.10
40374;DHT22;26079;45.958;12.492;2022-08-19T11:38:28;27.60;75.70
40374;DHT22;26079;45.958;12.492;2022-08-19T11:41:01;27.60;74.90
40374;DHT22;26079;45.958;12.492;2022-08-19T11:43:28;27.60;73.90
40374;DHT22;26079;45.958;12.492;2022-08-19T11:45:54;27.80;74.90
40374;DHT22;26079;45.958;12.492;2022-08-19T11:48:20;28.00;73.50
40374;DHT22;26079;45.958;12.492;2022-08-19T11:50:48;28.00;71.80
40374;DHT22;26079;45.958;12.492;2022-08-19T11:53:15;27.90;71.70
40374;DHT22;26079;45.958;12.492;2022-08-19T11:55:41;28.00;73.30
40374;DHT22;26079;45.958;12.492;2022-08-19T11:58:08;28.00;73.60
40374;DHT22;26079;45.958;12.492;2022-08-19T12:00:34;28.00;71.80
40374;DHT22;26079;45.958;12.492;2022-08-19T12:03:02;28.00;70.60
40374;DHT22;26079;45.958;12.492;2022-08-19T12:05:28;28.10;69.30
40374;DHT22;26079;45.958;12.492;2022-08-19T12:07:54;28.00;69.70
40374;DHT22;26079;45.958;12.492;2022-08-19T12:10:20;27.90;69.80
40374;DHT22;26079;45.958;12.492;2022-08-19T12:12:46;27.90;70.50
40374;DHT22;26079;45.958;12.492;2022-08-19T12:15:12;27.80;70.40
40374;DHT22;26079;45.958;12.492;2022-08-19T12:17:42;27.70;70.40
40374;DHT22;26079;45.958;12.492;2022-08-19T12:20:13;27.90;74.20
40374;DHT22;26079;45.958;12.492;2022-08-19T12:22:41;28.00;70.40
40374;DHT22;26079;45.958;12.492;2022-08-19T12:25:11;28.00;71.40
40374;DHT22;26079;45.958;12.492;2022-08-19T12:27:38;27.80;71.40
40374;DHT22;26079;45.958;12.492;2022-08-19T12:30:06;27.70;71.20
40374;DHT22;26079;45.958;12.492;2022-08-19T12:32:39;27.50;69.50
40374;DHT22;26079;45.958;12.492;2022-08-19T12:35:06;27.30;70.10
40374;DHT22;26079;45.958;12.492;2022-08-19T12:37:34;27.20;70.70
40374;DHT22;26079;45.958;12.492;2022-08-19T12:40:00;27.10;71.10
40374;DHT22;26079;45.958;12.492;2022-08-19T12:42:26;27.10;70.90
40374;DHT22;26079;45.958;12.492;2022-08-19T12:44:52;27.00;72.10
40374;DHT22;26079;45.958;12.492;2022-08-19T12:47:18;26.90;73.60
40374;DHT22;26079;45.958;12.492;2022-08-19T12:49:44;26.90;73.50
40374;DHT22;26079;45.958;12.492;2022-08-19T12:52:11;26.70;74.60
40374;DHT22;26079;45.958;12.492;2022-08-19T12:54:40;26.60;76.10
40374;DHT22;26079;45.958;12.492;2022-08-19T12:57:10;26.30;76.70
40374;DHT22;26079;45.958;12.492;2022-08-19T12:59:39;26.10;76.80
40374;DHT22;26079;45.958;12.492;2022-08-19T13:02:06;25.80;77.90
40374;DHT22;26079;45.958;12.492;2022-08-19T13:04:34;25.80;77.10
40374;DHT22;26079;45.958;12.492;2022-08-19T13:07:02;25.70;77.00
40374;DHT22;26079;45.958;12.492;2022-08-19T13:09:29;25.80;76.90
40374;DHT22;26079;45.958;12.492;2022-08-19T13:11:54;25.90;76.60
40374;DHT22;26079;45.958;12.492;2022-08-19T13:14:22;25.80;76.40
40374;DHT22;26079;45.958;12.492;2022-08-19T13:16:50;25.80;76.00
40374;DHT22;26079;45.958;12.492;2022-08-19T13:19:16;25.70;76.80
40374;DHT22;26079;45.958;12.492;2022-08-19T13:21:49;25.70;77.20
40374;DHT22;26079;45.958;12.492;2022-08-19T13:24:15;25.70;76.40
40374;DHT22;26079;45.958;12.492;2022-08-19T13:26:41;25.70;76.20
40374;DHT22;26079;45.958;12.492;2022-08-19T13:29:07;25.70;76.50
40374;DHT22;26079;45.958;12.492;2022-08-19T13:31:51;25.70;76.20
40374;DHT22;26079;45.958;12.492;2022-08-19T13:34:35;25.90;76.10
40374;DHT22;26079;45.958;12.492;2022-08-19T13:37:06;26.00;75.70
40374;DHT22;26079;45.958;12.492;2022-08-19T13:39:32;26.10;75.20
40374;DHT22;26079;45.958;12.492;2022-08-19T13:41:59;26.10;75.70
40374;DHT22;26079;45.958;12.492;2022-08-19T13:44:26;26.20;75.00
40374;DHT22;26079;45.958;12.492;2022-08-19T13:47:05;26.30;74.20
40374;DHT22;26079;45.958;12.492;2022-08-19T13:49:32;26.30;74.80
40374;DHT22;26079;45.958;12.492;2022-08-19T13:51:58;26.40;74.00
40374;DHT22;26079;45.958;12.492;2022-08-19T13:54:27;26.40;73.80
40374;DHT22;26079;45.958;12.492;2022-08-19T13:56:55;26.50;75.20
40374;DHT22;26079;45.958;12.492;2022-08-19T13:59:21;26.50;74.00
40374;DHT22;26079;45.958;12.492;2022-08-19T14:01:47;26.50;73.60
40374;DHT22;26079;45.958;12.492;2022-08-19T14:04:12;26.50;74.20
40374;DHT22;26079;45.958;12.492;2022-08-19T14:06:38;26.40;74.70
40374;DHT22;26079;45.958;12.492;2022-08-19T14:09:04;26.40;75.70
40374;DHT22;26079;45.958;12.492;2022-08-19T14:11:33;26.50;74.70
40374;DHT22;26079;45.958;12.492;2022-08-19T14:13:58;26.60;75.20
40374;DHT22;26079;45.958;12.492;2022-08-19T14:16:24;26.70;74.70
40374;DHT22;26079;45.958;12.492;2022-08-19T14:18:50;26.80;74.30
40374;DHT22;26079;45.958;12.492;2022-08-19T14:21:20;26.80;74.40
40374;DHT22;26079;45.958;12.492;2022-08-19T14:23:52;26.80;74.00
40374;DHT22;26079;45.958;12.492;2022-08-19T14:26:21;26.90;74.00
40374;DHT22;26079;45.958;12.492;2022-08-19T14:28:47;26.90;74.40
40374;DHT22;26079;45.958;12.492;2022-08-19T14:31:14;26.90;73.10
40374;DHT22;26079;45.958;12.492;2022-08-19T14:33:47;26.90;73.00
40374;DHT22;26079;45.958;12.492;2022-08-19T14:36:13;27.00;74.60
40374;DHT22;26079;45.958;12.492;2022-08-19T14:38:39;27.10;72.90
40374;DHT22;26079;45.958;12.492;2022-08-19T14:41:17;27.00;73.30
40374;DHT22;26079;45.958;12.492;2022-08-19T14:43:46;26.80;73.20
40374;DHT22;26079;45.958;12.492;2022-08-19T14:46:17;26.70;73.70
40374;DHT22;26079;45.958;12.492;2022-08-19T14:48:45;26.60;74.50
40374;DHT22;26079;45.958;12.492;2022-08-19T14:51:11;26.50;74.60
40374;DHT22;26079;45.958;12.492;2022-08-19T14:53:40;26.40;74.60
40374;DHT22;26079;45.958;12.492;2022-08-19T14:56:11;26.30;75.10
40374;DHT22;26079;45.958;12.492;2022-08-19T14:58:41;26.20;74.70
40374;DHT22;26079;45.958;12.492;2022-08-19T15:01:08;26.20;75.60
40374;DHT22;26079;45.958;12.492;2022-08-19T15:03:35;26.10;75.80
40374;DHT22;26079;45.958;12.492;2022-08-19T15:06:03;26.10;76.10
40374;DHT22;26079;45.958;12.492;2022-08-19T15:08:30;25.90;75.80
40374;DHT22;26079;45.958;12.492;2022-08-19T15:10:57;25.90;76.10
40374;DHT22;26079;45.958;12.492;2022-08-19T15:13:24;25.80;76.60
40374;DHT22;26079;45.958;12.492;2022-08-19T15:15:50;25.80;76.90
40374;DHT22;26079;45.958;12.492;2022-08-19T15:18:17;25.70;77.20
40374;DHT22;26079;45.958;12.492;2022-08-19T15:20:43;25.70;77.70
40374;DHT22;26079;45.958;12.492;2022-08-19T15:23:10;25.70;77.70
40374;DHT22;26079;45.958;12.492;2022-08-19T15:25:36;25.70;78.60
40374;DHT22;26079;45.958;12.492;2022-08-19T15:28:02;25.70;78.10
40374;DHT22;26079;45.958;12.492;2022-08-19T15:30:28;25.70;78.30
40374;DHT22;26079;45.958;12.492;2022-08-19T15:32:57;25.70;78.60
40374;DHT22;26079;45.958;12.492;2022-08-19T15:35:23;25.70;78.70
40374;DHT22;26079;45.958;12.492;2022-08-19T15:37:51;25.70;78.20
40374;DHT22;26079;45.958;12.492;2022-08-19T15:40:18;25.70;79.00